sensor_id;sensor_type;location;lat;lon;timestamp;P1;durP1;ratioP1;P2;durP2;ratioP2
64560;SDS011;50960;46.838;16.838;2022-07-18T00:02:16;1.98;;;1.88;;
64560;SDS011;50960;46.838;16.838;2022-07-18T00:04:43;2.35;;;2.00;;
64560;SDS011;50960;46.838;16.838;2022-07-18T00:07:10;2.17;;;2.00;;
64560;SDS011;50960;46.838;16.838;2022-07-18T00:09:36;2.17;;;1.95;;
64560;SDS011;50960;46.838;16.838;2022-07-18T00:12:04;2.50;;;2.30;;
64560;SDS011;50960;46.838;16.838;2022-07-18T00:14:32;3.22;;;2.22;;
64560;SDS011;50960;46.838;16.838;2022-07-18T00:16:58;3.58;;;2.33;;
64560;SDS011;50960;46.838;16.838;2022-07-18T00:19:25;2.20;;;2.00;;
64560;SDS011;50960;46.838;16.838;2022-07-18T00:21:52;2.75;;;1.90;;
64560;SDS011;50960;46.838;16.838;2022-07-18T00:24:18;2.40;;;1.77;;
64560;SDS011;50960;46.838;16.838;2022-07-18T00:26:44;3.10;;;2.13;;
64560;SDS011;50960;46.838;16.838;2022-07-18T00:29:10;2.50;;;2.30;;
64560;SDS011;50960;46.838;16.838;2022-07-18T00:31:37;2.10;;;2.00;;
64560;SDS011;50960;46.838;16.838;2022-07-18T00:34:03;2.53;;;2.33;;
64560;SDS011;50960;46.838;16.838;2022-07-18T00:36:30;2.05;;;1.85;;
64560;SDS011;50960;46.838;16.838;2022-07-18T00:38:57;2.72;;;2.20;;
64560;SDS011;50960;46.838;16.838;2022-07-18T00:41:23;2.22;;;2.03;;
64560;SDS011;50960;46.838;16.838;2022-07-18T00:43:50;2.15;;;1.88;;
64560;SDS011;50960;46.838;16.838;2022-07-18T00:46:20;2.65;;;1.88;;
64560;SDS011;50960;46.838;16.838;2022-07-18T00:48:51;2.80;;;2.10;;
64560;SDS011;50960;46.838;16.838;2022-07-18T00:51:18;2.53;;;1.98;;
64560;SDS011;50960;46.838;16.838;2022-07-18T00:53:45;2.30;;;2.10;;
64560;SDS011;50960;46.838;16.838;2022-07-18T00:56:12;2.10;;;1.90;;
64560;SDS011;50960;46.838;16.838;2022-07-18T00:58:42;2.28;;;2.08;;
64560;SDS011;50960;46.838;16.838;2022-07-18T01:01:08;2.15;;;2.05;;
64560;SDS011;50960;46.838;16.838;2022-07-18T01:03:53;2.50;;;2.00;;
64560;SDS011;50960;46.838;16.838;2022-07-18T01:06:20;2.35;;;1.98;;
64560;SDS011;50960;46.838;16.838;2022-07-18T01:08:46;2.90;;;1.90;;
64560;SDS011;50960;46.838;16.838;2022-07-18T01:11:12;2.15;;;1.95;;
64560;SDS011;50960;46.838;16.838;2022-07-18T01:13:39;2.22;;;2.03;;
64560;SDS011;50960;46.838;16.838;2022-07-18T01:16:06;3.00;;;2.20;;
64560;SDS011;50960;46.838;16.838;2022-07-18T01:18:33;2.30;;;2.20;;
64560;SDS011;50960;46.838;16.838;2022-07-18T01:20:59;2.45;;;2.25;;
64560;SDS011;50960;46.838;16.838;2022-07-18T01:23:26;3.17;;;2.08;;
64560;SDS011;50960;46.838;16.838;2022-07-18T01:25:52;3.90;;;2.28;;
64560;SDS011;50960;46.838;16.838;2022-07-18T01:28:18;2.20;;;2.10;;
64560;SDS011;50960;46.838;16.838;2022-07-18T01:30:44;4.15;;;2.92;;
64560;SDS011;50960;46.838;16.838;2022-07-18T01:33:10;3.83;;;2.20;;
64560;SDS011;50960;46.838;16.838;2022-07-18T01:35:37;2.72;;;2.45;;
64560;SDS011;50960;46.838;16.838;2022-07-18T01:38:03;3.25;;;2.08;;
64560;SDS011;50960;46.838;16.838;2022-07-18T01:40:29;3.08;;;2.33;;
64560;SDS011;50960;46.838;16.838;2022-07-18T01:42:56;2.22;;;2.10;;
64560;SDS011;50960;46.838;16.838;2022-07-18T01:45:22;3.28;;;2.20;;
64560;SDS011;50960;46.838;16.838;2022-07-18T01:47:48;3.75;;;3.42;;
64560;SDS011;50960;46.838;16.838;2022-07-18T01:50:15;4.63;;;3.13;;
64560;SDS011;50960;46.838;16.838;2022-07-18T01:52:41;2.63;;;2.42;;
64560;SDS011;50960;46.838;16.838;2022-07-18T01:55:08;2.40;;;2.20;;
64560;SDS011;50960;46.838;16.838;2022-07-18T01:57:36;2.88;;;2.60;;
64560;SDS011;50960;46.838;16.838;2022-07-18T02:00:03;2.75;;;2.25;;
64560;SDS011;50960;46.838;16.838;2022-07-18T02:02:31;2.10;;;2.00;;
64560;SDS011;50960;46.838;16.838;2022-07-18T02:04:57;2.83;;;2.63;;
64560;SDS011;50960;46.838;16.838;2022-07-18T02:07:30;2.92;;;2.30;;
64560;SDS011;50960;46.838;16.838;2022-07-18T02:09:59;3.65;;;2.30;;
64560;SDS011;50960;46.838;16.838;2022-07-18T02:12:25;2.78;;;2.50;;
64560;SDS011;50960;46.838;16.838;2022-07-18T02:14:52;2.20;;;2.10;;
64560;SDS011;50960;46.838;16.838;2022-07-18T02:17:18;3.20;;;2.28;;
64560;SDS011;50960;46.838;16.838;2022-07-18T02:19:45;2.22;;;2.10;;
64560;SDS011;50960;46.838;16.838;2022-07-18T02:22:11;2.78;;;2.20;;
64560;SDS011;50960;46.838;16.838;2022-07-18T02:24:38;2.40;;;2.20;;
64560;SDS011;50960;46.838;16.838;2022-07-18T02:27:04;2.33;;;2.00;;
64560;SDS011;50960;46.838;16.838;2022-07-18T02:29:30;2.38;;;2.00;;
64560;SDS011;50960;46.838;16.838;2022-07-18T02:31:56;2.13;;;2.00;;
64560;SDS011;50960;46.838;16.838;2022-07-18T02:34:23;2.72;;;2.28;;
64560;SDS011;50960;46.838;16.838;2022-07-18T02:36:49;2.30;;;2.10;;
64560;SDS011;50960;46.838;16.838;2022-07-18T02:39:16;2.42;;;2.22;;
64560;SDS011;50960;46.838;16.838;2022-07-18T02:41:43;2.20;;;2.10;;
64560;SDS011;50960;46.838;16.838;2022-07-18T02:44:09;2.90;;;2.22;;
64560;SDS011;50960;46.838;16.838;2022-07-18T02:46:35;5.47;;;2.13;;
64560;SDS011;50960;46.838;16.838;2022-07-18T02:49:02;2.90;;;2.20;;
64560;SDS011;50960;46.838;16.838;2022-07-18T02:51:28;2.17;;;1.92;;
64560;SDS011;50960;46.838;16.838;2022-07-18T02:53:54;3.67;;;2.42;;
64560;SDS011;50960;46.838;16.838;2022-07-18T02:56:21;2.33;;;2.20;;
64560;SDS011;50960;46.838;16.838;2022-07-18T02:58:47;2.45;;;2.22;;
64560;SDS011;50960;46.838;16.838;2022-07-18T03:01:13;3.75;;;2.30;;
64560;SDS011;50960;46.838;16.838;2022-07-18T03:03:39;2.40;;;2.20;;
64560;SDS011;50960;46.838;16.838;2022-07-18T03:06:06;3.50;;;2.50;;
64560;SDS011;50960;46.838;16.838;2022-07-18T03:08:32;2.53;;;2.10;;
64560;SDS011;50960;46.838;16.838;2022-07-18T03:10:58;2.40;;;2.20;;
64560;SDS011;50960;46.838;16.838;2022-07-18T03:13:24;2.05;;;1.95;;
64560;SDS011;50960;46.838;16.838;2022-07-18T03:15:50;2.35;;;2.13;;
64560;SDS011;50960;46.838;16.838;2022-07-18T03:18:17;3.22;;;2.17;;
64560;SDS011;50960;46.838;16.838;2022-07-18T03:20:43;2.53;;;2.30;;
64560;SDS011;50960;46.838;16.838;2022-07-18T03:23:10;3.33;;;2.17;;
64560;SDS011;50960;46.838;16.838;2022-07-18T03:25:36;2.22;;;2.10;;
64560;SDS011;50960;46.838;16.838;2022-07-18T03:28:02;3.08;;;2.03;;
64560;SDS011;50960;46.838;16.838;2022-07-18T03:30:28;2.40;;;2.20;;
64560;SDS011;50960;46.838;16.838;2022-07-18T03:32:55;4.38;;;2.78;;
64560;SDS011;50960;46.838;16.838;2022-07-18T03:35:21;4.75;;;4.20;;
64560;SDS011;50960;46.838;16.838;2022-07-18T03:37:47;19.17;;;13.38;;
64560;SDS011;50960;46.838;16.838;2022-07-18T03:40:13;22.13;;;16.33;;
64560;SDS011;50960;46.838;16.838;2022-07-18T03:42:40;12.27;;;8.70;;
64560;SDS011;50960;46.838;16.838;2022-07-18T03:45:06;7.22;;;6.30;;
64560;SDS011;50960;46.838;16.838;2022-07-18T03:47:34;6.88;;;5.80;;
64560;SDS011;50960;46.838;16.838;2022-07-18T03:50:00;6.63;;;4.13;;
64560;SDS011;50960;46.838;16.838;2022-07-18T03:52:27;3.58;;;3.28;;
64560;SDS011;50960;46.838;16.838;2022-07-18T03:54:53;3.72;;;2.70;;
64560;SDS011;50960;46.838;16.838;2022-07-18T03:57:19;2.40;;;2.20;;
64560;SDS011;50960;46.838;16.838;2022-07-18T03:59:45;2.58;;;2.40;;
64560;SDS011;50960;46.838;16.838;2022-07-18T04:02:11;3.15;;;2.45;;
64560;SDS011;50960;46.838;16.838;2022-07-18T04:04:37;5.63;;;4.10;;
64560;SDS011;50960;46.838;16.838;2022-07-18T04:07:04;4.68;;;3.83;;
64560;SDS011;50960;46.838;16.838;2022-07-18T04:09:30;5.88;;;3.40;;
64560;SDS011;50960;46.838;16.838;2022-07-18T04:11:56;4.47;;;3.78;;
64560;SDS011;50960;46.838;16.838;2022-07-18T04:14:22;3.25;;;2.90;;
64560;SDS011;50960;46.838;16.838;2022-07-18T04:16:49;3.80;;;3.05;;
64560;SDS011;50960;46.838;16.838;2022-07-18T04:19:15;5.43;;;3.38;;
64560;SDS011;50960;46.838;16.838;2022-07-18T04:21:42;3.38;;;2.80;;
64560;SDS011;50960;46.838;16.838;2022-07-18T04:24:09;5.20;;;3.05;;
64560;SDS011;50960;46.838;16.838;2022-07-18T04:26:36;3.92;;;3.03;;
64560;SDS011;50960;46.838;16.838;2022-07-18T04:29:02;4.30;;;3.47;;
64560;SDS011;50960;46.838;16.838;2022-07-18T04:31:29;6.00;;;2.80;;
64560;SDS011;50960;46.838;16.838;2022-07-18T04:33:55;4.90;;;2.58;;
64560;SDS011;50960;46.838;16.838;2022-07-18T04:36:21;4.72;;;2.60;;
64560;SDS011;50960;46.838;16.838;2022-07-18T04:38:48;2.95;;;2.70;;
64560;SDS011;50960;46.838;16.838;2022-07-18T04:41:14;3.08;;;2.28;;
64560;SDS011;50960;46.838;16.838;2022-07-18T04:43:42;3.50;;;3.22;;
64560;SDS011;50960;46.838;16.838;2022-07-18T04:46:08;4.45;;;3.50;;
64560;SDS011;50960;46.838;16.838;2022-07-18T04:48:34;11.18;;;8.65;;
64560;SDS011;50960;46.838;16.838;2022-07-18T04:51:03;11.27;;;8.57;;
64560;SDS011;50960;46.838;16.838;2022-07-18T04:53:29;8.23;;;5.82;;
64560;SDS011;50960;46.838;16.838;2022-07-18T04:55:55;5.65;;;4.82;;
64560;SDS011;50960;46.838;16.838;2022-07-18T04:58:21;5.30;;;4.00;;
64560;SDS011;50960;46.838;16.838;2022-07-18T05:00:48;5.28;;;3.70;;
64560;SDS011;50960;46.838;16.838;2022-07-18T05:03:14;3.97;;;2.85;;
64560;SDS011;50960;46.838;16.838;2022-07-18T05:05:40;3.75;;;3.33;;
64560;SDS011;50960;46.838;16.838;2022-07-18T05:08:06;4.55;;;3.20;;
64560;SDS011;50960;46.838;16.838;2022-07-18T05:10:32;4.60;;;3.42;;
64560;SDS011;50960;46.838;16.838;2022-07-18T05:12:59;3.47;;;3.17;;
64560;SDS011;50960;46.838;16.838;2022-07-18T05:15:25;3.38;;;2.97;;
64560;SDS011;50960;46.838;16.838;2022-07-18T05:17:52;5.78;;;3.80;;
64560;SDS011;50960;46.838;16.838;2022-07-18T05:20:19;6.15;;;3.00;;
64560;SDS011;50960;46.838;16.838;2022-07-18T05:22:47;3.65;;;3.30;;
64560;SDS011;50960;46.838;16.838;2022-07-18T05:25:14;3.60;;;3.28;;
64560;SDS011;50960;46.838;16.838;2022-07-18T05:27:40;3.72;;;3.10;;
64560;SDS011;50960;46.838;16.838;2022-07-18T05:30:07;3.25;;;2.95;;
64560;SDS011;50960;46.838;16.838;2022-07-18T05:32:36;3.58;;;3.28;;
64560;SDS011;50960;46.838;16.838;2022-07-18T05:35:03;4.47;;;3.28;;
64560;SDS011;50960;46.838;16.838;2022-07-18T05:37:30;5.82;;;3.40;;
64560;SDS011;50960;46.838;16.838;2022-07-18T05:39:56;5.85;;;3.33;;
64560;SDS011;50960;46.838;16.838;2022-07-18T05:42:22;4.43;;;3.33;;
64560;SDS011;50960;46.838;16.838;2022-07-18T05:44:49;5.20;;;3.25;;
64560;SDS011;50960;46.838;16.838;2022-07-18T05:47:15;5.75;;;3.35;;
64560;SDS011;50960;46.838;16.838;2022-07-18T05:49:41;4.32;;;3.45;;
64560;SDS011;50960;46.838;16.838;2022-07-18T05:52:07;12.50;;;8.13;;
64560;SDS011;50960;46.838;16.838;2022-07-18T05:54:33;5.90;;;3.70;;
64560;SDS011;50960;46.838;16.838;2022-07-18T05:56:59;6.90;;;5.18;;
64560;SDS011;50960;46.838;16.838;2022-07-18T05:59:26;4.53;;;4.00;;
64560;SDS011;50960;46.838;16.838;2022-07-18T06:01:52;5.85;;;3.70;;
64560;SDS011;50960;46.838;16.838;2022-07-18T06:04:18;7.13;;;4.60;;
64560;SDS011;50960;46.838;16.838;2022-07-18T06:06:44;6.65;;;4.22;;
64560;SDS011;50960;46.838;16.838;2022-07-18T06:09:10;4.40;;;3.70;;
64560;SDS011;50960;46.838;16.838;2022-07-18T06:11:38;4.07;;;3.03;;
64560;SDS011;50960;46.838;16.838;2022-07-18T06:14:04;3.22;;;2.75;;
64560;SDS011;50960;46.838;16.838;2022-07-18T06:16:30;4.65;;;3.15;;
64560;SDS011;50960;46.838;16.838;2022-07-18T06:18:57;3.85;;;3.00;;
64560;SDS011;50960;46.838;16.838;2022-07-18T06:21:24;4.57;;;2.80;;
64560;SDS011;50960;46.838;16.838;2022-07-18T06:23:51;4.68;;;2.78;;
64560;SDS011;50960;46.838;16.838;2022-07-18T06:26:17;5.97;;;4.00;;
64560;SDS011;50960;46.838;16.838;2022-07-18T06:28:43;4.15;;;3.00;;
64560;SDS011;50960;46.838;16.838;2022-07-18T06:31:09;7.60;;;2.90;;
64560;SDS011;50960;46.838;16.838;2022-07-18T06:33:37;4.03;;;3.13;;
64560;SDS011;50960;46.838;16.838;2022-07-18T06:36:03;5.05;;;3.10;;
64560;SDS011;50960;46.838;16.838;2022-07-18T06:38:31;6.40;;;3.20;;
64560;SDS011;50960;46.838;16.838;2022-07-18T06:40:57;6.43;;;3.85;;
64560;SDS011;50960;46.838;16.838;2022-07-18T06:43:24;3.97;;;3.33;;
64560;SDS011;50960;46.838;16.838;2022-07-18T06:45:50;4.25;;;3.35;;
64560;SDS011;50960;46.838;16.838;2022-07-18T06:48:17;3.95;;;3.13;;
64560;SDS011;50960;46.838;16.838;2022-07-18T06:50:43;4.60;;;2.90;;
64560;SDS011;50960;46.838;16.838;2022-07-18T06:53:10;3.45;;;2.20;;
64560;SDS011;50960;46.838;16.838;2022-07-18T06:55:36;3.55;;;2.30;;
64560;SDS011;50960;46.838;16.838;2022-07-18T06:58:02;2.53;;;2.22;;
64560;SDS011;50960;46.838;16.838;2022-07-18T07:00:28;3.38;;;2.30;;
64560;SDS011;50960;46.838;16.838;2022-07-18T07:02:55;6.88;;;2.50;;
64560;SDS011;50960;46.838;16.838;2022-07-18T07:05:21;2.45;;;2.10;;
64560;SDS011;50960;46.838;16.838;2022-07-18T07:07:47;2.60;;;2.35;;
64560;SDS011;50960;46.838;16.838;2022-07-18T07:10:15;3.65;;;2.28;;
64560;SDS011;50960;46.838;16.838;2022-07-18T07:12:44;3.25;;;2.40;;
64560;SDS011;50960;46.838;16.838;2022-07-18T07:15:15;4.13;;;2.00;;
64560;SDS011;50960;46.838;16.838;2022-07-18T07:17:44;2.40;;;2.20;;
64560;SDS011;50960;46.838;16.838;2022-07-18T07:20:11;2.40;;;2.20;;
64560;SDS011;50960;46.838;16.838;2022-07-18T07:22:50;2.25;;;2.00;;
64560;SDS011;50960;46.838;16.838;2022-07-18T07:25:19;3.67;;;2.08;;
64560;SDS011;50960;46.838;16.838;2022-07-18T07:27:47;4.53;;;1.77;;
64560;SDS011;50960;46.838;16.838;2022-07-18T07:30:13;3.13;;;1.88;;
64560;SDS011;50960;46.838;16.838;2022-07-18T07:32:41;3.53;;;1.92;;
64560;SDS011;50960;46.838;16.838;2022-07-18T07:35:09;4.20;;;2.22;;
64560;SDS011;50960;46.838;16.838;2022-07-18T07:37:41;3.05;;;2.03;;
64560;SDS011;50960;46.838;16.838;2022-07-18T07:40:09;2.53;;;1.90;;
64560;SDS011;50960;46.838;16.838;2022-07-18T07:42:36;3.15;;;1.88;;
64560;SDS011;50960;46.838;16.838;2022-07-18T07:45:03;2.88;;;2.22;;
64560;SDS011;50960;46.838;16.838;2022-07-18T07:47:30;4.70;;;1.95;;
64560;SDS011;50960;46.838;16.838;2022-07-18T07:49:56;3.03;;;2.00;;
64560;SDS011;50960;46.838;16.838;2022-07-18T07:52:23;2.00;;;1.90;;
64560;SDS011;50960;46.838;16.838;2022-07-18T07:54:50;5.13;;;2.10;;
64560;SDS011;50960;46.838;16.838;2022-07-18T07:57:17;6.10;;;2.22;;
64560;SDS011;50960;46.838;16.838;2022-07-18T07:59:43;3.70;;;2.00;;
64560;SDS011;50960;46.838;16.838;2022-07-18T08:02:09;3.08;;;2.10;;
64560;SDS011;50960;46.838;16.838;2022-07-18T08:04:35;2.00;;;1.83;;
64560;SDS011;50960;46.838;16.838;2022-07-18T08:07:02;2.55;;;2.00;;
64560;SDS011;50960;46.838;16.838;2022-07-18T08:09:28;6.15;;;2.45;;
64560;SDS011;50960;46.838;16.838;2022-07-18T08:11:54;2.22;;;2.03;;
64560;SDS011;50960;46.838;16.838;2022-07-18T08:14:21;2.72;;;2.30;;
64560;SDS011;50960;46.838;16.838;2022-07-18T08:16:47;3.55;;;2.22;;
64560;SDS011;50960;46.838;16.838;2022-07-18T08:19:13;3.38;;;1.95;;
64560;SDS011;50960;46.838;16.838;2022-07-18T08:21:39;2.75;;;2.00;;
64560;SDS011;50960;46.838;16.838;2022-07-18T08:24:05;2.83;;;2.03;;
64560;SDS011;50960;46.838;16.838;2022-07-18T08:26:32;5.30;;;2.10;;
64560;SDS011;50960;46.838;16.838;2022-07-18T08:29:01;4.65;;;1.90;;
64560;SDS011;50960;46.838;16.838;2022-07-18T08:31:28;5.13;;;1.92;;
64560;SDS011;50960;46.838;16.838;2022-07-18T08:33:54;3.28;;;1.83;;
64560;SDS011;50960;46.838;16.838;2022-07-18T08:36:20;1.85;;;1.50;;
64560;SDS011;50960;46.838;16.838;2022-07-18T08:38:47;3.85;;;2.00;;
64560;SDS011;50960;46.838;16.838;2022-07-18T08:41:13;2.22;;;1.50;;
64560;SDS011;50960;46.838;16.838;2022-07-18T08:43:42;4.88;;;1.50;;
64560;SDS011;50960;46.838;16.838;2022-07-18T08:46:13;3.55;;;1.60;;
64560;SDS011;50960;46.838;16.838;2022-07-18T08:48:41;2.35;;;1.60;;
64560;SDS011;50960;46.838;16.838;2022-07-18T08:51:08;1.98;;;1.50;;
64560;SDS011;50960;46.838;16.838;2022-07-18T08:53:34;2.70;;;1.92;;
64560;SDS011;50960;46.838;16.838;2022-07-18T08:56:03;4.05;;;1.60;;
64560;SDS011;50960;46.838;16.838;2022-07-18T08:58:30;3.20;;;1.50;;
64560;SDS011;50960;46.838;16.838;2022-07-18T09:00:56;4.20;;;2.10;;
64560;SDS011;50960;46.838;16.838;2022-07-18T09:03:26;1.95;;;1.67;;
64560;SDS011;50960;46.838;16.838;2022-07-18T09:08:38;1.92;;;1.80;;
64560;SDS011;50960;46.838;16.838;2022-07-18T09:11:09;3.63;;;1.60;;
64560;SDS011;50960;46.838;16.838;2022-07-18T09:13:38;3.10;;;1.90;;
64560;SDS011;50960;46.838;16.838;2022-07-18T09:16:08;1.90;;;1.70;;
64560;SDS011;50960;46.838;16.838;2022-07-18T09:18:36;2.35;;;1.83;;
64560;SDS011;50960;46.838;16.838;2022-07-18T09:21:05;2.75;;;1.85;;
64560;SDS011;50960;46.838;16.838;2022-07-18T09:23:41;2.90;;;1.70;;
64560;SDS011;50960;46.838;16.838;2022-07-18T09:26:08;3.63;;;2.15;;
64560;SDS011;50960;46.838;16.838;2022-07-18T09:28:46;2.47;;;1.70;;
64560;SDS011;50960;46.838;16.838;2022-07-18T09:31:20;4.53;;;1.83;;
64560;SDS011;50960;46.838;16.838;2022-07-18T09:33:55;2.10;;;1.80;;
64560;SDS011;50960;46.838;16.838;2022-07-18T09:36:25;2.75;;;1.75;;
64560;SDS011;50960;46.838;16.838;2022-07-18T09:38:53;1.92;;;1.60;;
64560;SDS011;50960;46.838;16.838;2022-07-18T09:41:23;2.47;;;1.98;;
64560;SDS011;50960;46.838;16.838;2022-07-18T09:43:51;3.80;;;1.70;;
64560;SDS011;50960;46.838;16.838;2022-07-18T09:46:18;4.38;;;1.98;;
64560;SDS011;50960;46.838;16.838;2022-07-18T09:48:45;2.35;;;1.80;;
64560;SDS011;50960;46.838;16.838;2022-07-18T09:51:11;2.05;;;1.50;;
64560;SDS011;50960;46.838;16.838;2022-07-18T09:53:41;6.15;;;3.75;;
64560;SDS011;50960;46.838;16.838;2022-07-18T09:56:11;2.50;;;1.77;;
64560;SDS011;50960;46.838;16.838;2022-07-18T10:01:07;1.70;;;1.60;;
64560;SDS011;50960;46.838;16.838;2022-07-18T10:03:35;2.38;;;1.60;;
64560;SDS011;50960;46.838;16.838;2022-07-18T10:06:02;2.75;;;1.80;;
64560;SDS011;50960;46.838;16.838;2022-07-18T10:08:30;2.65;;;1.75;;
64560;SDS011;50960;46.838;16.838;2022-07-18T10:10:59;2.25;;;1.50;;
64560;SDS011;50960;46.838;16.838;2022-07-18T10:13:27;2.40;;;1.52;;
64560;SDS011;50960;46.838;16.838;2022-07-18T10:15:54;2.05;;;1.77;;
64560;SDS011;50960;46.838;16.838;2022-07-18T10:18:22;1.85;;;1.70;;
64560;SDS011;50960;46.838;16.838;2022-07-18T10:26:05;2.63;;;1.80;;
64560;SDS011;50960;46.838;16.838;2022-07-18T10:31:28;1.67;;;1.58;;
64560;SDS011;50960;46.838;16.838;2022-07-18T10:36:35;2.53;;;1.60;;
64560;SDS011;50960;46.838;16.838;2022-07-18T10:47:01;1.55;;;1.45;;
64560;SDS011;50960;46.838;16.838;2022-07-18T11:03:16;1.83;;;1.73;;
64560;SDS011;50960;46.838;16.838;2022-07-18T11:15:54;1.95;;;1.80;;
64560;SDS011;50960;46.838;16.838;2022-07-18T11:18:24;2.17;;;1.80;;
64560;SDS011;50960;46.838;16.838;2022-07-18T11:20:51;3.28;;;2.00;;
64560;SDS011;50960;46.838;16.838;2022-07-18T11:23:18;1.75;;;1.55;;
64560;SDS011;50960;46.838;16.838;2022-07-18T11:25:46;4.07;;;1.80;;
64560;SDS011;50960;46.838;16.838;2022-07-18T11:28:17;2.03;;;1.88;;
64560;SDS011;50960;46.838;16.838;2022-07-18T11:30:44;2.00;;;1.80;;
64560;SDS011;50960;46.838;16.838;2022-07-18T11:33:20;2.00;;;1.70;;
64560;SDS011;50960;46.838;16.838;2022-07-18T11:35:49;1.73;;;1.63;;
64560;SDS011;50960;46.838;16.838;2022-07-18T11:38:16;3.63;;;2.20;;
64560;SDS011;50960;46.838;16.838;2022-07-18T11:40:49;1.70;;;1.60;;
64560;SDS011;50960;46.838;16.838;2022-07-18T11:43:20;2.28;;;1.73;;
64560;SDS011;50960;46.838;16.838;2022-07-18T11:45:59;1.83;;;1.73;;
64560;SDS011;50960;46.838;16.838;2022-07-18T11:48:31;3.58;;;1.70;;
64560;SDS011;50960;46.838;16.838;2022-07-18T11:50:58;2.03;;;1.83;;
64560;SDS011;50960;46.838;16.838;2022-07-18T11:53:25;3.63;;;1.73;;
64560;SDS011;50960;46.838;16.838;2022-07-18T11:55:52;3.63;;;1.80;;
64560;SDS011;50960;46.838;16.838;2022-07-18T11:58:19;2.35;;;1.75;;
64560;SDS011;50960;46.838;16.838;2022-07-18T12:00:46;2.42;;;1.70;;
64560;SDS011;50960;46.838;16.838;2022-07-18T12:03:16;2.13;;;1.80;;
64560;SDS011;50960;46.838;16.838;2022-07-18T12:05:49;5.97;;;2.38;;
64560;SDS011;50960;46.838;16.838;2022-07-18T12:08:32;2.45;;;1.63;;
64560;SDS011;50960;46.838;16.838;2022-07-18T12:11:05;3.63;;;1.83;;
64560;SDS011;50960;46.838;16.838;2022-07-18T12:13:40;3.45;;;1.80;;
64560;SDS011;50960;46.838;16.838;2022-07-18T12:16:06;2.67;;;1.90;;
64560;SDS011;50960;46.838;16.838;2022-07-18T12:18:32;1.80;;;1.70;;
64560;SDS011;50960;46.838;16.838;2022-07-18T12:21:08;2.00;;;1.80;;
64560;SDS011;50960;46.838;16.838;2022-07-18T12:23:35;3.33;;;1.83;;
64560;SDS011;50960;46.838;16.838;2022-07-18T12:26:01;4.13;;;1.70;;
64560;SDS011;50960;46.838;16.838;2022-07-18T12:28:28;2.15;;;1.63;;
64560;SDS011;50960;46.838;16.838;2022-07-18T12:30:54;3.45;;;1.80;;
64560;SDS011;50960;46.838;16.838;2022-07-18T12:33:21;2.13;;;1.80;;
64560;SDS011;50960;46.838;16.838;2022-07-18T12:35:57;2.25;;;1.90;;
64560;SDS011;50960;46.838;16.838;2022-07-18T12:38:25;1.50;;;1.40;;
64560;SDS011;50960;46.838;16.838;2022-07-18T12:43:30;1.88;;;1.77;;
64560;SDS011;50960;46.838;16.838;2022-07-18T12:45:59;2.08;;;1.88;;
64560;SDS011;50960;46.838;16.838;2022-07-18T12:48:27;1.70;;;1.52;;
64560;SDS011;50960;46.838;16.838;2022-07-18T12:50:58;1.58;;;1.48;;
64560;SDS011;50960;46.838;16.838;2022-07-18T12:53:28;2.75;;;1.60;;
64560;SDS011;50960;46.838;16.838;2022-07-18T12:55:55;3.75;;;1.70;;
64560;SDS011;50960;46.838;16.838;2022-07-18T12:58:22;2.22;;;1.70;;
64560;SDS011;50960;46.838;16.838;2022-07-18T13:00:48;2.25;;;1.77;;
64560;SDS011;50960;46.838;16.838;2022-07-18T13:03:15;2.05;;;1.80;;
64560;SDS011;50960;46.838;16.838;2022-07-18T13:05:41;2.00;;;1.70;;
64560;SDS011;50960;46.838;16.838;2022-07-18T13:08:08;1.55;;;1.45;;
64560;SDS011;50960;46.838;16.838;2022-07-18T13:10:37;2.38;;;1.60;;
64560;SDS011;50960;46.838;16.838;2022-07-18T13:13:04;1.63;;;1.48;;
64560;SDS011;50960;46.838;16.838;2022-07-18T13:15:31;3.20;;;1.60;;
64560;SDS011;50960;46.838;16.838;2022-07-18T13:17:58;1.80;;;1.70;;
64560;SDS011;50960;46.838;16.838;2022-07-18T13:20:24;2.28;;;1.70;;
64560;SDS011;50960;46.838;16.838;2022-07-18T13:22:51;2.67;;;1.42;;
64560;SDS011;50960;46.838;16.838;2022-07-18T13:25:18;2.08;;;1.67;;
64560;SDS011;50960;46.838;16.838;2022-07-18T13:27:46;1.70;;;1.60;;
64560;SDS011;50960;46.838;16.838;2022-07-18T13:30:12;2.15;;;1.70;;
64560;SDS011;50960;46.838;16.838;2022-07-18T13:32:39;6.50;;;1.70;;
64560;SDS011;50960;46.838;16.838;2022-07-18T13:35:05;1.95;;;1.60;;
64560;SDS011;50960;46.838;16.838;2022-07-18T13:37:32;2.22;;;1.50;;
64560;SDS011;50960;46.838;16.838;2022-07-18T13:39:58;2.75;;;1.80;;
64560;SDS011;50960;46.838;16.838;2022-07-18T13:42:24;3.22;;;1.50;;
64560;SDS011;50960;46.838;16.838;2022-07-18T13:44:50;2.25;;;2.08;;
64560;SDS011;50960;46.838;16.838;2022-07-18T13:47:16;1.90;;;1.58;;
64560;SDS011;50960;46.838;16.838;2022-07-18T13:49:43;3.05;;;1.60;;
64560;SDS011;50960;46.838;16.838;2022-07-18T13:52:09;4.63;;;1.60;;
64560;SDS011;50960;46.838;16.838;2022-07-18T13:54:35;1.88;;;1.77;;
64560;SDS011;50960;46.838;16.838;2022-07-18T13:57:02;2.03;;;1.83;;
64560;SDS011;50960;46.838;16.838;2022-07-18T13:59:28;1.60;;;1.50;;
64560;SDS011;50960;46.838;16.838;2022-07-18T14:01:54;1.92;;;1.70;;
64560;SDS011;50960;46.838;16.838;2022-07-18T14:04:21;2.03;;;1.80;;
64560;SDS011;50960;46.838;16.838;2022-07-18T14:06:47;1.80;;;1.70;;
64560;SDS011;50960;46.838;16.838;2022-07-18T14:09:14;1.70;;;1.60;;
64560;SDS011;50960;46.838;16.838;2022-07-18T14:11:40;3.78;;;1.60;;
64560;SDS011;50960;46.838;16.838;2022-07-18T14:14:06;2.40;;;1.45;;
64560;SDS011;50960;46.838;16.838;2022-07-18T14:16:32;2.67;;;1.80;;
64560;SDS011;50960;46.838;16.838;2022-07-18T14:18:59;2.28;;;1.85;;
64560;SDS011;50960;46.838;16.838;2022-07-18T14:21:25;2.03;;;1.92;;
64560;SDS011;50960;46.838;16.838;2022-07-18T14:23:51;3.28;;;1.77;;
64560;SDS011;50960;46.838;16.838;2022-07-18T14:26:17;1.63;;;1.52;;
64560;SDS011;50960;46.838;16.838;2022-07-18T14:28:44;1.70;;;1.60;;
64560;SDS011;50960;46.838;16.838;2022-07-18T14:31:10;1.67;;;1.58;;
64560;SDS011;50960;46.838;16.838;2022-07-18T14:33:36;4.03;;;1.80;;
64560;SDS011;50960;46.838;16.838;2022-07-18T14:36:02;1.55;;;1.45;;
64560;SDS011;50960;46.838;16.838;2022-07-18T14:38:29;1.83;;;1.73;;
64560;SDS011;50960;46.838;16.838;2022-07-18T14:40:55;3.15;;;1.60;;
64560;SDS011;50960;46.838;16.838;2022-07-18T14:43:21;4.13;;;1.70;;
64560;SDS011;50960;46.838;16.838;2022-07-18T14:45:48;3.53;;;1.60;;
64560;SDS011;50960;46.838;16.838;2022-07-18T14:48:14;2.05;;;1.80;;
64560;SDS011;50960;46.838;16.838;2022-07-18T14:50:40;2.75;;;1.80;;
64560;SDS011;50960;46.838;16.838;2022-07-18T14:53:07;3.25;;;1.70;;
64560;SDS011;50960;46.838;16.838;2022-07-18T14:55:33;2.67;;;1.60;;
64560;SDS011;50960;46.838;16.838;2022-07-18T14:57:59;1.98;;;1.60;;
64560;SDS011;50960;46.838;16.838;2022-07-18T15:00:25;2.10;;;1.55;;
64560;SDS011;50960;46.838;16.838;2022-07-18T15:02:51;1.83;;;1.73;;
64560;SDS011;50960;46.838;16.838;2022-07-18T15:05:17;1.77;;;1.52;;
64560;SDS011;50960;46.838;16.838;2022-07-18T15:07:44;1.60;;;1.50;;
64560;SDS011;50960;46.838;16.838;2022-07-18T15:10:10;2.95;;;1.65;;
64560;SDS011;50960;46.838;16.838;2022-07-18T15:12:36;2.10;;;1.73;;
64560;SDS011;50960;46.838;16.838;2022-07-18T15:15:02;4.18;;;1.98;;
64560;SDS011;50960;46.838;16.838;2022-07-18T15:17:29;1.70;;;1.60;;
64560;SDS011;50960;46.838;16.838;2022-07-18T15:19:56;2.35;;;1.60;;
64560;SDS011;50960;46.838;16.838;2022-07-18T15:22:22;2.17;;;1.50;;
64560;SDS011;50960;46.838;16.838;2022-07-18T15:24:49;1.70;;;1.60;;